Time;durP1;ratioP1;P1;durP2;ratioP2;P2;SDS_P1;SDS_P2;PMS_P1;PMS_P2;Temp;Humidity;BMP_temperature;BMP_pressure;BME280_temperature;BME280_humidity;BME280_pressure;Samples;Min_cycle;Max_cycle;Signal;HPM_P1;HPM_P2
2022/05/07 00:00:09;;;;;;;7.60;5.30;;;10.50;99.90;;;;;;4971382;28;20217;-77
2022/05/07 00:02:35;;;;;;;8.40;6.07;;;10.50;99.90;;;;;;4972850;28;20210;-78
2022/05/07 00:05:00;;;;;;;8.80;5.83;;;10.40;99.90;;;;;;4972537;28;20178;-77
2022/05/07 00:07:26;;;;;;;9.77;6.10;;;10.50;99.90;;;;;;4972459;28;20269;-77
2022/05/07 00:09:51;;;;;;;8.60;6.10;;;10.40;99.90;;;;;;4972280;28;20259;-77
2022/05/07 00:12:17;;;;;;;7.87;6.07;;;10.40;99.90;;;;;;4972509;28;20244;-77
2022/05/07 00:14:43;;;;;;;7.30;5.60;;;10.30;99.90;;;;;;4972584;28;20170;-77
2022/05/07 00:19:53;;;;;;;7.77;5.80;;;10.20;99.90;;;;;;4972327;28;20281;-77
2022/05/07 00:22:18;;;;;;;9.77;6.33;;;10.20;99.90;;;;;;4972760;28;20253;-77
2022/05/07 00:24:44;;;;;;;8.77;5.97;;;10.20;99.90;;;;;;4972355;28;20234;-76
2022/05/07 00:27:11;;;;;;;12.47;6.37;;;10.10;99.90;;;;;;4972283;28;20200;-77
2022/05/07 00:29:36;;;;;;;7.77;5.87;;;10.10;99.90;;;;;;4970901;28;20678;-77
2022/05/07 00:32:03;;;;;;;8.67;5.77;;;10.10;99.90;;;;;;4970887;28;20198;-77
2022/05/07 00:34:28;;;;;;;8.27;6.13;;;10.10;99.90;;;;;;4972155;28;20182;-77
2022/05/07 00:36:54;;;;;;;7.63;6.17;;;10.00;99.90;;;;;;4972416;28;20544;-77
2022/05/07 00:39:19;;;;;;;8.57;6.50;;;10.00;99.90;;;;;;4972034;28;20205;-77
2022/05/07 00:41:45;;;;;;;6.97;6.17;;;10.00;99.90;;;;;;4972133;28;20195;-77
2022/05/07 00:44:10;;;;;;;8.07;6.10;;;10.00;99.90;;;;;;4970799;28;20189;-77
2022/05/07 00:46:36;;;;;;;7.43;6.23;;;10.00;99.90;;;;;;4972624;28;20177;-77
2022/05/07 00:49:02;;;;;;;9.50;6.87;;;9.90;99.90;;;;;;4970802;28;20612;-78
2022/05/07 00:51:33;;;;;;;9.97;7.23;;;9.90;99.90;;;;;;4971936;28;20241;-78
2022/05/07 00:54:06;;;;;;;11.00;7.33;;;9.90;99.90;;;;;;4971870;28;20677;-77
2022/05/07 00:56:33;;;;;;;11.90;7.53;;;9.90;99.90;;;;;;4971963;28;20159;-77
2022/05/07 00:59:00;;;;;;;8.43;7.53;;;9.90;99.90;;;;;;4972089;28;20541;-77
2022/05/07 01:01:26;;;;;;;11.60;7.20;;;9.80;99.90;;;;;;4970454;28;20249;-77
2022/05/07 01:03:52;;;;;;;9.33;7.40;;;9.80;99.90;;;;;;4970800;28;20666;-77
2022/05/07 01:06:18;;;;;;;9.43;7.37;;;9.70;99.90;;;;;;4970677;28;20265;-77
2022/05/07 01:08:46;;;;;;;9.67;7.03;;;9.70;99.90;;;;;;4972135;28;20551;-76
2022/05/07 01:11:12;;;;;;;14.57;8.10;;;9.70;99.90;;;;;;4970755;28;20206;-77
2022/05/07 01:13:39;;;;;;;10.53;7.43;;;9.60;99.90;;;;;;4971878;28;20540;-77
2022/05/07 01:16:05;;;;;;;12.00;7.50;;;9.60;99.90;;;;;;4972081;28;20170;-77
2022/05/07 01:18:30;;;;;;;11.30;7.60;;;9.60;99.90;;;;;;4971888;28;20174;-77
2022/05/07 01:20:58;;;;;;;11.50;7.50;;;9.50;99.90;;;;;;4970317;28;20198;-77
2022/05/07 01:23:25;;;;;;;9.47;7.47;;;9.60;99.90;;;;;;4970558;28;20182;-77
2022/05/07 01:25:50;;;;;;;9.73;7.33;;;9.60;99.90;;;;;;4970230;28;20174;-76
2022/05/07 01:28:16;;;;;;;11.83;8.07;;;9.60;99.90;;;;;;4971628;28;20617;-77
2022/05/07 01:30:41;;;;;;;9.63;7.97;;;9.50;99.90;;;;;;4971395;28;20217;-77
2022/05/07 01:33:07;;;;;;;10.20;8.13;;;9.60;99.90;;;;;;4971553;28;20171;-77
2022/05/07 01:35:32;;;;;;;12.40;8.40;;;9.60;99.90;;;;;;4971510;28;20587;-77
2022/05/07 01:37:58;;;;;;;14.67;8.83;;;9.50;99.90;;;;;;4971486;28;20174;-77
2022/05/07 01:40:23;;;;;;;12.60;8.93;;;9.50;99.90;;;;;;4971762;28;20197;-77
2022/05/07 01:42:49;;;;;;;13.40;8.57;;;9.50;99.90;;;;;;4969954;28;20174;-76
2022/05/07 01:45:14;;;;;;;10.87;8.23;;;9.50;99.90;;;;;;4971416;28;20175;-76
2022/05/07 01:50:25;;;;;;;10.80;8.53;;;9.50;99.90;;;;;;4972591;28;20217;-76
2022/05/07 01:52:51;;;;;;;11.10;8.60;;;9.50;99.90;;;;;;4972741;28;20194;-76
2022/05/07 01:55:16;;;;;;;12.47;8.03;;;9.50;99.90;;;;;;4972845;28;20550;-76
2022/05/07 01:57:42;;;;;;;9.93;7.67;;;9.40;99.90;;;;;;4972734;28;20174;-77
2022/05/07 02:00:08;;;;;;;13.63;8.67;;;9.40;99.90;;;;;;4971270;28;20260;-77
2022/05/07 02:02:34;;;;;;;10.97;8.10;;;9.40;99.90;;;;;;4972642;28;20174;-76
2022/05/07 02:05:00;;;;;;;11.63;8.27;;;9.40;99.90;;;;;;4973302;28;20356;-77
2022/05/07 02:07:25;;;;;;;12.63;9.00;;;9.30;99.90;;;;;;4975161;28;20236;-78
2022/05/07 02:09:51;;;;;;;12.37;9.33;;;9.30;99.90;;;;;;4973556;28;20747;-77
2022/05/07 02:12:17;;;;;;;13.37;8.87;;;9.30;99.90;;;;;;4973854;28;20288;-77
2022/05/07 02:14:42;;;;;;;11.93;8.70;;;9.30;99.90;;;;;;4974186;28;20174;-77
2022/05/07 02:17:09;;;;;;;12.33;9.33;;;9.30;99.90;;;;;;4975086;28;20177;-78
2022/05/07 02:19:34;;;;;;;13.20;10.27;;;9.30;99.90;;;;;;4975199;28;20171;-77
2022/05/07 02:22:00;;;;;;;12.97;9.30;;;9.20;99.90;;;;;;4975246;28;20178;-78
2022/05/07 02:24:26;;;;;;;13.97;9.60;;;9.20;99.90;;;;;;4973899;28;20253;-78
2022/05/07 02:26:51;;;;;;;17.33;11.00;;;9.20;99.90;;;;;;4975700;28;20182;-77
2022/05/07 02:29:17;;;;;;;13.60;10.60;;;9.20;99.90;;;;;;4977382;28;20182;-78
2022/05/07 02:32:03;;;;;;;12.73;9.93;;;9.10;99.90;;;;;;4977132;28;20684;-77
2022/05/07 02:34:32;;;;;;;13.03;9.03;;;9.10;99.90;;;;;;4976682;28;20155;-78
2022/05/07 02:36:58;;;;;;;15.80;10.20;;;9.10;99.90;;;;;;4975567;28;20248;-78
2022/05/07 02:39:24;;;;;;;13.40;9.70;;;9.10;99.90;;;;;;4987230;28;20166;-78
2022/05/07 02:44:34;;;;;;;13.43;9.63;;;9.00;99.90;;;;;;4979478;28;20211;-77
2022/05/07 02:46:59;;;;;;;15.03;9.73;;;9.00;99.90;;;;;;4974327;28;20261;-77
2022/05/07 02:49:25;;;;;;;12.80;9.10;;;9.00;99.90;;;;;;4974856;28;20590;-77
2022/05/07 02:51:51;;;;;;;13.40;9.20;;;9.00;99.90;;;;;;4974398;28;20255;-77
2022/05/07 02:54:17;;;;;;;11.93;9.27;;;9.00;99.90;;;;;;4974413;28;20545;-77
2022/05/07 02:56:42;;;;;;;13.87;9.03;;;9.00;99.90;;;;;;4972817;28;20182;-77
2022/05/07 02:59:08;;;;;;;14.03;9.07;;;9.00;99.90;;;;;;4974267;28;20528;-77
2022/05/07 03:01:33;;;;;;;14.53;9.57;;;9.00;99.90;;;;;;4972574;28;20226;-77
2022/05/07 03:03:59;;;;;;;11.87;8.73;;;8.90;99.90;;;;;;4974160;28;20526;-77
2022/05/07 03:06:24;;;;;;;11.10;8.57;;;8.90;99.90;;;;;;4972627;28;20186;-77
2022/05/07 03:08:50;;;;;;;12.70;9.23;;;8.90;99.90;;;;;;4973949;28;20236;-77
2022/05/07 03:11:15;;;;;;;11.80;9.03;;;8.90;99.90;;;;;;4973980;28;20260;-77
2022/05/07 03:13:41;;;;;;;11.17;8.83;;;8.90;99.90;;;;;;4974545;28;20189;-77
2022/05/07 03:16:07;;;;;;;12.50;8.93;;;8.90;99.90;;;;;;4972918;28;20167;-77
2022/05/07 03:18:33;;;;;;;12.23;9.10;;;8.90;99.90;;;;;;4973118;28;20178;-77
2022/05/07 03:20:59;;;;;;;11.97;9.43;;;8.90;99.90;;;;;;4973229;28;20190;-77
2022/05/07 03:23:25;;;;;;;12.30;9.07;;;8.90;99.90;;;;;;4971967;28;20777;-77
2022/05/07 03:25:51;;;;;;;12.03;9.00;;;8.90;99.90;;;;;;4973042;28;20257;-76
2022/05/07 03:28:17;;;;;;;12.87;10.33;;;8.90;99.90;;;;;;4973217;28;20257;-77
2022/05/07 03:30:42;;;;;;;14.00;10.60;;;8.90;99.90;;;;;;4972984;28;20209;-77
2022/05/07 03:33:08;;;;;;;12.70;9.23;;;8.90;99.90;;;;;;4971906;28;20242;-77
2022/05/07 03:35:33;;;;;;;14.00;9.77;;;8.80;99.90;;;;;;4973113;28;20171;-77
2022/05/07 03:37:59;;;;;;;13.40;10.30;;;8.80;99.90;;;;;;4973327;28;20171;-77
2022/05/07 03:40:25;;;;;;;15.20;11.27;;;8.80;99.90;;;;;;4971610;28;20214;-78
2022/05/07 03:42:51;;;;;;;17.70;10.47;;;8.80;99.90;;;;;;4972899;28;20644;-77
2022/05/07 03:45:16;;;;;;;16.17;10.10;;;8.80;99.90;;;;;;4973322;28;20601;-77
2022/05/07 03:47:42;;;;;;;12.43;9.80;;;8.80;99.90;;;;;;4972025;28;20174;-77
2022/05/07 03:50:08;;;;;;;17.03;10.83;;;8.80;99.90;;;;;;4973236;28;20209;-77
2022/05/07 03:55:17;;;;;;;17.23;11.80;;;8.80;99.90;;;;;;4973147;28;20165;-76
2022/05/07 03:57:43;;;;;;;16.70;11.63;;;8.70;99.90;;;;;;4973131;28;20167;-77
2022/05/07 04:00:09;;;;;;;18.07;11.73;;;8.70;99.90;;;;;;4972734;28;20208;-75
2022/05/07 04:02:35;;;;;;;21.63;14.43;;;8.70;99.90;;;;;;4971644;28;20656;-78
2022/05/07 04:05:02;;;;;;;18.97;13.20;;;8.70;99.90;;;;;;4972614;28;20233;-77
2022/05/07 04:07:28;;;;;;;19.37;14.40;;;8.70;99.90;;;;;;4972783;28;20537;-78
2022/05/07 04:09:56;;;;;;;22.13;14.67;;;8.70;99.90;;;;;;4970352;28;20199;-77
2022/05/07 04:12:22;;;;;;;18.50;13.40;;;8.70;99.90;;;;;;4971374;28;20202;-77
2022/05/07 04:14:48;;;;;;;16.23;12.67;;;8.70;99.90;;;;;;4970966;28;20179;-76
2022/05/07 04:17:13;;;;;;;16.73;12.43;;;8.70;99.90;;;;;;4972597;28;20178;-77
2022/05/07 04:19:39;;;;;;;18.43;12.73;;;8.70;99.90;;;;;;4971458;28;20174;-78
2022/05/07 04:22:05;;;;;;;14.83;11.90;;;8.70;99.90;;;;;;4972234;28;20186;-78
2022/05/07 04:24:33;;;;;;;18.90;13.40;;;8.70;99.90;;;;;;4974163;28;20206;-78
2022/05/07 04:26:59;;;;;;;20.83;15.83;;;8.70;99.90;;;;;;4972921;28;20189;-77
2022/05/07 04:29:24;;;;;;;20.03;14.67;;;8.70;99.90;;;;;;4972376;28;20177;-77
2022/05/07 04:31:50;;;;;;;16.97;13.17;;;8.70;99.90;;;;;;4972390;28;20263;-77
2022/05/07 04:34:15;;;;;;;16.67;13.23;;;8.70;99.90;;;;;;4970947;28;20178;-77
2022/05/07 04:36:42;;;;;;;16.23;12.23;;;8.70;99.90;;;;;;4971931;28;20667;-77
2022/05/07 04:39:07;;;;;;;17.83;12.63;;;8.70;99.90;;;;;;4972081;28;20701;-77
2022/05/07 04:41:33;;;;;;;16.67;12.57;;;8.70;99.90;;;;;;4970754;28;20194;-76
2022/05/07 04:43:58;;;;;;;17.10;12.80;;;8.80;99.90;;;;;;4970694;28;20364;-76
2022/05/07 04:46:24;;;;;;;18.17;12.97;;;8.80;99.90;;;;;;4970695;28;20219;-77
2022/05/07 04:48:50;;;;;;;17.53;14.37;;;8.80;99.90;;;;;;4971883;28;20257;-77
2022/05/07 04:51:15;;;;;;;19.93;14.53;;;8.80;99.90;;;;;;4972072;28;20624;-77
2022/05/07 04:53:41;;;;;;;21.03;14.90;;;8.80;99.90;;;;;;4972071;28;20170;-77
2022/05/07 04:56:06;;;;;;;18.77;14.03;;;8.80;99.90;;;;;;4970634;28;20183;-77
2022/05/07 04:58:32;;;;;;;18.47;14.17;;;8.80;99.90;;;;;;4971876;28;20701;-76
2022/05/07 05:00:57;;;;;;;21.37;14.33;;;8.90;99.90;;;;;;4971817;28;20213;-76
2022/05/07 05:03:23;;;;;;;19.53;14.63;;;8.90;99.90;;;;;;4972028;28;20551;-77
2022/05/07 05:05:48;;;;;;;20.60;14.37;;;8.90;99.90;;;;;;4971687;28;20178;-77
2022/05/07 05:08:14;;;;;;;18.90;14.53;;;8.90;99.90;;;;;;4971758;28;20273;-77
2022/05/07 05:10:39;;;;;;;18.90;14.30;;;9.00;99.90;;;;;;4971598;28;20248;-77
2022/05/07 05:13:05;;;;;;;18.27;14.17;;;9.00;99.90;;;;;;4970402;28;20171;-77
2022/05/07 05:15:31;;;;;;;21.37;15.00;;;9.00;99.90;;;;;;4970469;28;20206;-77
2022/05/07 05:17:57;;;;;;;19.53;14.67;;;9.10;99.90;;;;;;4971791;28;20174;-78
2022/05/07 05:20:22;;;;;;;20.00;15.07;;;9.10;99.90;;;;;;4970330;28;20667;-77
2022/05/07 05:22:48;;;;;;;21.83;16.33;;;9.10;99.90;;;;;;4971701;28;20178;-77
2022/05/07 05:25:15;;;;;;;21.77;15.40;;;9.20;99.90;;;;;;4971693;28;20266;-77
2022/05/07 05:27:41;;;;;;;19.80;15.90;;;9.20;99.90;;;;;;4971218;28;20179;-77
2022/05/07 05:30:07;;;;;;;20.97;14.73;;;9.30;99.90;;;;;;4971750;28;20201;-77
2022/05/07 05:32:33;;;;;;;20.57;15.73;;;9.30;99.90;;;;;;4970109;28;20297;-77
2022/05/07 05:34:58;;;;;;;20.77;15.43;;;9.40;99.90;;;;;;4971404;28;20252;-77
2022/05/07 05:37:24;;;;;;;20.63;15.33;;;9.40;99.90;;;;;;4971401;28;20171;-77
2022/05/07 05:39:49;;;;;;;19.97;15.30;;;9.50;99.90;;;;;;4972086;28;20187;-77
2022/05/07 05:42:15;;;;;;;19.43;14.27;;;9.50;99.90;;;;;;4974948;28;20178;-79
2022/05/07 05:44:41;;;;;;;20.17;14.60;;;9.60;99.90;;;;;;4973864;28;20178;-77
2022/05/07 05:47:08;;;;;;;19.90;15.33;;;9.70;99.90;;;;;;4973497;28;20209;-77
2022/05/07 05:49:34;;;;;;;19.47;14.60;;;9.80;99.90;;;;;;4974783;28;20179;-76
2022/05/07 05:52:07;;;;;;;17.87;14.43;;;9.80;99.90;;;;;;4974412;28;20210;-76
2022/05/07 05:54:34;;;;;;;19.70;14.27;;;9.90;99.90;;;;;;4974685;28;20189;-75
2022/05/07 05:57:00;;;;;;;19.50;15.87;;;10.00;99.90;;;;;;4973042;28;20178;-77
2022/05/07 05:59:26;;;;;;;22.30;17.10;;;10.00;99.90;;;;;;4974303;28;20171;-76
2022/05/07 06:01:52;;;;;;;18.77;15.37;;;10.10;99.90;;;;;;4974524;28;20683;-76
2022/05/07 06:04:18;;;;;;;20.90;15.30;;;10.20;99.90;;;;;;4974454;28;20245;-77
2022/05/07 06:06:44;;;;;;;21.40;15.37;;;10.20;99.90;;;;;;4973133;28;20178;-76
2022/05/07 06:09:09;;;;;;;18.70;14.97;;;10.30;99.90;;;;;;4973227;28;20269;-76
2022/05/07 06:11:35;;;;;;;16.93;14.80;;;10.40;99.90;;;;;;4974158;28;20699;-76
2022/05/07 06:14:01;;;;;;;21.67;15.00;;;10.40;99.90;;;;;;4974903;28;20171;-77
2022/05/07 06:16:26;;;;;;;22.23;16.43;;;10.50;99.90;;;;;;4974621;28;20179;-77
2022/05/07 06:18:52;;;;;;;21.77;17.50;;;10.60;99.90;;;;;;4972870;28;20220;-77
2022/05/07 06:21:17;;;;;;;22.63;18.00;;;10.60;99.90;;;;;;4974110;28;20198;-77
2022/05/07 06:23:43;;;;;;;22.07;18.23;;;10.70;99.90;;;;;;4974433;28;20174;-75
2022/05/07 06:28:53;;;;;;;25.37;20.63;;;10.90;99.90;;;;;;4974299;28;20172;-76
2022/05/07 06:31:19;;;;;;;30.07;21.77;;;10.90;99.90;;;;;;4973110;28;20206;-77
2022/05/07 06:33:45;;;;;;;28.83;23.00;;;11.00;99.90;;;;;;4974475;28;20196;-77
2022/05/07 06:36:10;;;;;;;30.90;24.63;;;11.10;99.90;;;;;;4974643;28;20170;-77
2022/05/07 06:38:37;;;;;;;35.33;26.97;;;11.20;99.90;;;;;;4974885;28;20603;-77
2022/05/07 06:41:04;;;;;;;38.90;28.73;;;11.30;99.90;;;;;;4974015;28;20675;-77
2022/05/07 06:43:31;;;;;;;36.03;29.40;;;11.50;99.90;;;;;;4975964;28;20666;-77
2022/05/07 06:45:57;;;;;;;34.80;27.40;;;11.60;99.90;;;;;;4974932;28;20223;-77
2022/05/07 06:48:24;;;;;;;37.80;28.93;;;11.70;99.90;;;;;;4974847;28;20700;-77
2022/05/07 06:50:50;;;;;;;36.43;30.00;;;11.80;99.90;;;;;;4976007;28;20214;-77
2022/05/07 06:53:16;;;;;;;38.07;30.37;;;12.00;99.90;;;;;;4976502;28;20177;-77
2022/05/07 06:55:58;;;;;;;34.50;28.03;;;12.10;99.90;;;;;;4976634;28;20174;-77
2022/05/07 06:58:26;;;;;;;34.67;27.23;;;12.20;99.90;;;;;;4975052;28;20639;-77
2022/05/07 07:00:52;;;;;;;32.27;24.50;;;12.40;99.90;;;;;;4973749;28;20289;-77
2022/05/07 07:03:18;;;;;;;32.47;26.53;;;12.50;99.90;;;;;;4973844;28;20181;-76
2022/05/07 07:05:44;;;;;;;31.10;24.90;;;12.60;99.90;;;;;;4972908;28;20265;-76
2022/05/07 07:08:13;;;;;;;34.93;26.03;;;12.70;99.90;;;;;;4975640;28;20201;-78
2022/05/07 07:10:41;;;;;;;30.07;24.40;;;12.90;99.90;;;;;;4974340;28;20610;-77
2022/05/07 07:13:07;;;;;;;28.83;23.30;;;13.00;99.90;;;;;;4974523;28;20224;-77
2022/05/07 07:15:33;;;;;;;27.60;21.63;;;13.20;99.90;;;;;;4972583;28;20596;-76
2022/05/07 07:17:58;;;;;;;30.77;22.53;;;13.30;99.90;;;;;;4972833;28;20175;-77
2022/05/07 07:20:24;;;;;;;33.30;22.20;;;13.40;99.90;;;;;;4972741;28;20728;-77
2022/05/07 07:22:49;;;;;;;25.03;20.97;;;13.50;99.90;;;;;;4974001;28;20208;-77
2022/05/07 07:25:15;;;;;;;28.27;21.80;;;13.70;99.90;;;;;;4973339;28;20271;-77
2022/05/07 07:27:41;;;;;;;28.07;21.37;;;13.90;38.10;;;;;;4975116;28;20546;-78
2022/05/07 07:30:07;;;;;;;25.50;20.80;;;14.00;1.00;;;;;;4974434;28;20288;-77
2022/05/07 07:32:33;;;;;;;27.03;21.97;;;14.10;1.00;;;;;;4974549;28;20539;-77
2022/05/07 07:34:58;;;;;;;29.67;23.17;;;14.20;1.00;;;;;;4973573;28;20201;-77
2022/05/07 07:37:25;;;;;;;26.30;21.30;;;14.30;1.00;;;;;;4972704;28;20178;-77
2022/05/07 07:39:51;;;;;;;26.80;21.33;;;14.40;1.00;;;;;;4973805;28;20182;-77
2022/05/07 07:42:20;;;;;;;28.53;22.73;;;14.50;1.00;;;;;;4973233;28;20239;-77
2022/05/07 07:47:56;;;;;;;30.93;22.13;;;14.60;99.90;;;;;;4972667;28;20189;-77
2022/05/07 07:50:15;;;;;;;25.00;21.93;;;14.80;1.00;;;;;;4973976;28;20286;-76
2022/05/07 07:52:41;;;;;;;26.43;20.57;;;14.90;99.90;;;;;;4973741;28;20280;-77
2022/05/07 07:55:06;;;;;;;26.50;21.00;;;15.00;99.90;;;;;;4974517;28;20170;-77
2022/05/07 07:57:32;;;;;;;25.43;19.87;;;15.10;99.90;;;;;;4973770;28;20169;-77
2022/05/07 07:59:57;;;;;;;26.07;21.17;;;15.10;1.00;;;;;;4974562;28;20229;-78
2022/05/07 08:02:23;;;;;;;23.80;19.90;;;15.20;99.90;;;;;;4973842;28;20163;-78
2022/05/07 08:04:53;;;;;;;27.63;19.60;;;15.30;22.70;;;;;;4972551;28;20178;-77
2022/05/07 08:12:47;;;;;;;23.93;17.80;;;15.50;99.90;;;;;;4974481;28;20233;-77
2022/05/07 08:15:13;;;;;;;21.83;16.27;;;15.60;1.00;;;;;;4974032;28;20174;-77
2022/05/07 08:17:39;;;;;;;18.93;15.47;;;15.70;1.00;;;;;;4974673;28;20202;-78
2022/05/07 08:20:11;;;;;;;19.93;15.67;;;15.80;99.90;;;;;;4974021;28;20664;-77
2022/05/07 08:22:36;;;;;;;20.77;15.57;;;15.90;1.00;;;;;;4974187;28;20519;-77
2022/05/07 08:25:02;;;;;;;22.57;16.07;;;16.00;1.00;;;;;;4974051;28;20174;-78
2022/05/07 08:27:28;;;;;;;22.77;16.63;;;16.10;1.00;;;;;;4973991;28;20228;-76
2022/05/07 08:29:56;;;;;;;22.80;15.50;;;16.20;94.80;;;;;;4973834;28;20225;-77
2022/05/07 08:32:22;;;;;;;21.17;15.60;;;16.40;1.00;;;;;;4973496;28;20285;-77
2022/05/07 08:34:48;;;;;;;26.23;16.37;;;16.50;1.00;;;;;;4974862;28;20217;-78
2022/05/07 08:37:14;;;;;;;19.90;16.20;;;16.60;99.90;;;;;;4975405;28;20171;-77
2022/05/07 08:39:40;;;;;;;19.97;16.30;;;16.70;1.00;;;;;;4972109;28;20606;-77
2022/05/07 08:42:06;;;;;;;25.13;15.40;;;16.80;1.00;;;;;;4974025;28;20181;-77
2022/05/07 08:44:33;;;;;;;24.67;16.30;;;16.80;1.00;;;;;;4972898;28;20182;-77
2022/05/07 08:46:59;;;;;;;23.77;16.30;;;16.90;1.00;;;;;;4972165;28;20560;-77
2022/05/07 08:49:25;;;;;;;23.40;16.37;;;16.90;1.00;;;;;;4973899;28;20644;-77
2022/05/07 08:51:53;;;;;;;21.67;16.13;;;17.10;99.90;;;;;;4973617;28;20227;-77
2022/05/07 08:54:19;;;;;;;21.97;15.80;;;17.10;1.00;;;;;;4972680;28;20331;-75
2022/05/07 08:56:44;;;;;;;23.47;15.80;;;17.20;99.90;;;;;;4971739;28;20201;-77
2022/05/07 08:59:10;;;;;;;21.83;14.80;;;17.20;99.90;;;;;;4972438;28;20679;-76
2022/05/07 09:01:35;;;;;;;18.10;14.23;;;17.30;99.90;;;;;;4973399;28;20217;-77
2022/05/07 09:04:09;;;;;;;23.67;15.00;;;17.40;1.00;;;;;;4972624;28;20562;-77
2022/05/07 09:06:35;;;;;;;21.70;15.13;;;17.50;99.90;;;;;;4973295;28;20258;-77
2022/05/07 09:09:05;;;;;;;22.07;14.20;;;17.60;1.00;;;;;;4973240;28;20182;-77
2022/05/07 09:11:39;;;;;;;19.13;13.93;;;17.60;1.00;;;;;;4974755;28;20213;-77
2022/05/07 09:14:05;;;;;;;20.10;14.63;;;17.60;1.00;;;;;;4975182;28;20150;-78
2022/05/07 09:17:00;;;;;;;19.60;13.90;;;17.70;1.00;;;;;;4973953;28;20274;-78
2022/05/07 09:19:28;;;;;;;18.40;13.70;;;17.80;1.00;;;;;;4972954;28;20182;-77
2022/05/07 09:22:07;;;;;;;19.43;14.23;;;17.90;1.00;;;;;;4972793;28;20182;-77
2022/05/07 09:24:33;;;;;;;22.20;15.03;;;18.00;55.10;;;;;;4972253;28;20710;-76
2022/05/07 09:26:59;;;;;;;17.80;13.03;;;18.10;1.00;;;;;;4972919;28;20249;-77
2022/05/07 09:29:28;;;;;;;22.17;14.17;;;18.10;93.60;;;;;;4972473;28;20220;-77
2022/05/07 09:31:54;;;;;;;21.63;13.90;;;18.30;1.00;;;;;;4973147;28;20269;-77
2022/05/07 09:37:17;;;;;;;21.63;13.43;;;18.50;1.00;;;;;;4972843;28;20170;-77
2022/05/07 09:39:50;;;;;;;17.23;11.60;;;18.60;1.00;;;;;;4972544;28;20280;-77
2022/05/07 09:42:21;;;;;;;18.87;12.43;;;18.80;1.00;;;;;;4973313;28;20240;-77
2022/05/07 09:44:47;;;;;;;16.77;11.07;;;18.80;1.00;;;;;;4973717;28;20182;-77
2022/05/07 09:47:13;;;;;;;16.53;11.80;;;19.00;99.90;;;;;;4972117;28;20560;-77
2022/05/07 09:50:20;;;;;;;16.27;9.97;;;19.00;99.90;;;;;;4973538;28;20179;-76
2022/05/07 09:52:29;;;;;;;15.17;9.70;;;19.20;99.90;;;;;;4973023;28;20218;-77
2022/05/07 09:57:40;;;;;;;12.70;9.00;;;19.40;99.90;;;;;;4972992;28;20228;-76
2022/05/07 10:00:16;;;;;;;15.70;8.83;;;19.50;99.90;;;;;;4970695;28;20695;-76
2022/05/07 10:03:10;;;;;;;14.67;9.30;;;19.60;99.90;;;;;;4971614;28;20266;-76
2022/05/07 10:05:51;;;;;;;17.37;10.47;;;19.70;99.90;;;;;;4971955;28;20179;-77
2022/05/07 10:08:30;;;;;;;15.10;9.20;;;19.60;99.90;;;;;;4972916;28;20190;-77
2022/05/07 10:10:57;;;;;;;15.13;9.03;;;19.70;99.90;;;;;;4971827;28;20202;-77
2022/05/07 10:13:23;;;;;;;11.93;8.67;;;19.80;99.90;;;;;;4973308;28;20181;-78
2022/05/07 10:16:03;;;;;;;15.47;10.87;;;19.90;99.90;;;;;;4973438;28;20187;-77
2022/05/07 10:18:41;;;;;;;17.33;11.97;;;20.00;91.90;;;;;;4971399;28;20265;-78
2022/05/07 10:21:11;;;;;;;18.07;10.90;;;20.00;99.90;;;;;;4971338;28;20198;-77
2022/05/07 10:23:47;;;;;;;16.90;10.70;;;20.10;99.90;;;;;;4973435;28;20522;-77
2022/05/07 10:26:12;;;;;;;20.63;12.40;;;20.10;99.90;;;;;;4973289;28;20155;-76
2022/05/07 10:28:40;;;;;;;17.80;12.50;;;20.10;1.00;;;;;;4975537;28;20206;-77
2022/05/07 10:31:16;;;;;;;19.43;12.50;;;20.10;25.70;;;;;;4975713;28;20199;-77
2022/05/07 10:33:41;;;;;;;22.33;13.57;;;20.10;72.70;;;;;;4975739;28;20529;-78
2022/05/07 10:36:08;;;;;;;20.57;11.73;;;20.10;1.00;;;;;;4976257;28;20171;-77
2022/05/07 10:38:38;;;;;;;18.30;11.67;;;20.10;22.80;;;;;;4975075;28;20243;-77
2022/05/07 10:41:19;;;;;;;17.10;11.60;;;20.20;1.00;;;;;;4975910;28;20202;-77
2022/05/07 10:44:09;;;;;;;19.43;11.93;;;20.30;1.00;;;;;;4976524;28;20511;-77
2022/05/07 10:46:45;;;;;;;18.07;12.47;;;20.20;44.30;;;;;;4974837;28;20175;-78
2022/05/07 10:49:10;;;;;;;20.27;11.57;;;20.30;86.60;;;;;;4976464;28;20170;-77
2022/05/07 10:51:53;;;;;;;18.00;12.37;;;20.30;99.90;;;;;;4975623;28;20259;-76
2022/05/07 10:54:26;;;;;;;19.10;13.27;;;20.40;35.90;;;;;;4974904;28;20197;-78
2022/05/07 10:56:57;;;;;;;19.77;12.33;;;20.40;1.00;;;;;;4975679;28;20174;-77
2022/05/07 10:59:24;;;;;;;20.43;13.40;;;20.50;1.00;;;;;;4976445;28;20246;-78
2022/05/07 11:01:50;;;;;;;22.27;12.53;;;20.50;21.20;;;;;;4976151;28;20648;-77
2022/05/07 11:04:19;;;;;;;19.13;13.27;;;20.60;99.90;;;;;;4978253;28;20178;-78
2022/05/07 11:06:47;;;;;;;25.13;14.57;;;20.70;1.00;;;;;;4981022;28;20178;-76
2022/05/07 11:09:24;;;;;;;19.17;13.70;;;20.80;1.00;;;;;;4976153;28;20182;-78
2022/05/07 11:11:54;;;;;;;24.50;14.07;;;20.80;1.00;;;;;;4976465;28;20597;-78
2022/05/07 11:14:24;;;;;;;18.80;13.23;;;20.80;1.00;;;;;;4974787;28;20286;-77
2022/05/07 11:16:53;;;;;;;22.73;14.70;;;20.90;24.50;;;;;;4974132;28;20183;-77
2022/05/07 11:19:32;;;;;;;25.60;14.67;;;21.10;1.00;;;;;;4976056;28;20170;-78
2022/05/07 11:21:59;;;;;;;20.03;13.73;;;21.10;1.00;;;;;;4975760;28;20163;-78
2022/05/07 11:24:26;;;;;;;21.40;13.80;;;21.10;1.00;;;;;;4974260;28;20178;-77
2022/05/07 11:27:02;;;;;;;24.77;14.63;;;21.20;1.00;;;;;;4975734;28;20190;-77
2022/05/07 11:29:29;;;;;;;22.83;13.80;;;21.20;1.00;;;;;;4975257;28;20162;-77
2022/05/07 11:31:57;;;;;;;20.17;13.17;;;21.30;8.30;;;;;;4975542;28;20228;-77
2022/05/07 11:34:33;;;;;;;18.93;12.60;;;21.30;19.10;;;;;;4975917;28;20270;-77
2022/05/07 11:37:15;;;;;;;19.20;13.50;;;21.50;1.00;;;;;;4973745;28;20174;-78
2022/05/07 11:39:51;;;;;;;21.23;13.40;;;21.70;1.00;;;;;;4974931;28;20185;-77
2022/05/07 11:42:38;;;;;;;20.27;13.53;;;21.80;1.00;;;;;;4974249;28;20646;-77
2022/05/07 11:47:57;;;;;;;18.50;11.27;;;22.00;1.00;;;;;;4975545;28;20166;-77
2022/05/07 11:50:31;;;;;;;15.23;11.30;;;22.10;1.00;;;;;;4973855;28;20553;-77
2022/05/07 11:53:15;;;;;;;18.83;12.60;;;22.20;1.00;;;;;;4974229;28;20197;-77
2022/05/07 11:55:42;;;;;;;14.87;10.13;;;21.90;1.00;;;;;;4974501;28;20246;-77
2022/05/07 11:58:13;;;;;;;16.70;10.27;;;21.80;1.00;;;;;;4973601;28;20265;-77
2022/05/07 12:00:42;;;;;;;16.57;11.77;;;21.90;1.00;;;;;;4974110;28;20209;-77
2022/05/07 12:03:09;;;;;;;12.90;9.80;;;21.80;1.00;;;;;;4972993;28;20182;-77
2022/05/07 12:05:56;;;;;;;13.40;10.23;;;21.70;1.00;;;;;;4974871;28;20175;-78
2022/05/07 12:08:23;;;;;;;17.13;10.70;;;21.90;1.00;;;;;;4973436;28;20178;-77
2022/05/07 12:10:50;;;;;;;14.07;9.37;;;21.80;1.00;;;;;;4974725;28;20283;-77
2022/05/07 12:13:21;;;;;;;17.07;9.27;;;21.80;1.00;;;;;;4974876;28;20180;-77
2022/05/07 12:18:31;;;;;;;17.03;10.40;;;21.80;1.00;;;;;;4974349;28;20300;-76
2022/05/07 12:20:58;;;;;;;21.97;11.23;;;21.60;1.00;;;;;;4972280;28;20691;-77
2022/05/07 12:29:49;;;;;;;13.20;10.33;;;21.80;1.00;;;;;;4974092;28;20174;-77
2022/05/07 12:31:50;;;;;;;13.53;9.40;;;22.20;1.00;;;;;;4974903;28;20274;-77
2022/05/07 12:34:16;;;;;;;13.50;9.47;;;22.10;1.00;;;;;;4976684;28;20201;-77
2022/05/07 12:36:42;;;;;;;14.40;9.60;;;22.10;1.00;;;;;;4974315;28;20183;-76
2022/05/07 12:39:07;;;;;;;14.17;9.80;;;21.90;1.00;;;;;;4973743;28;20182;-77
2022/05/07 12:41:33;;;;;;;15.10;9.97;;;22.00;1.00;;;;;;4973533;28;20201;-77
2022/05/07 12:44:01;;;;;;;14.40;9.30;;;22.10;1.00;;;;;;4973492;28;20185;-77
2022/05/07 12:46:27;;;;;;;12.50;9.03;;;22.20;1.00;;;;;;4972292;28;20246;-77
2022/05/07 12:48:55;;;;;;;13.67;9.70;;;22.30;1.00;;;;;;4971990;28;20675;-77
2022/05/07 12:51:21;;;;;;;12.70;8.53;;;22.30;1.00;;;;;;4973836;28;20684;-77
2022/05/07 12:53:49;;;;;;;14.53;9.43;;;22.30;1.00;;;;;;4975093;28;20185;-77
2022/05/07 12:56:14;;;;;;;18.03;12.33;;;22.50;1.00;;;;;;4971929;28;20632;-77
2022/05/07 12:58:40;;;;;;;16.37;12.83;;;22.60;1.00;;;;;;4973736;28;20186;-78
2022/05/07 13:01:06;;;;;;;15.30;12.33;;;22.50;1.00;;;;;;4974376;28;20214;-77
2022/05/07 13:03:31;;;;;;;21.60;14.43;;;22.60;1.00;;;;;;4973527;28;20194;-78
2022/05/07 13:05:57;;;;;;;18.83;13.60;;;22.50;1.00;;;;;;4975718;28;20185;-78
2022/05/07 13:08:22;;;;;;;19.13;12.07;;;22.40;1.00;;;;;;4977116;28;20581;-78
2022/05/07 13:10:48;;;;;;;18.73;14.20;;;22.40;1.00;;;;;;4975856;28;20194;-78
2022/05/07 13:13:17;;;;;;;15.70;12.23;;;22.50;1.00;;;;;;4976383;28;20208;-78
2022/05/07 13:15:42;;;;;;;17.30;11.43;;;22.50;1.00;;;;;;4974143;28;20185;-78
2022/05/07 13:18:08;;;;;;;19.57;14.33;;;22.50;1.00;;;;;;4973787;28;20170;-78